Time;durP1;ratioP1;P1;durP2;ratioP2;P2;SDS_P1;SDS_P2;PMS_P1;PMS_P2;Temp;Humidity;BMP_temperature;BMP_pressure;BME280_temperature;BME280_humidity;BME280_pressure;Samples;Min_cycle;Max_cycle;Signal;HPM_P1;HPM_P2
2024/01/22 00:02:14;;;;;;;4.30;3.03;;;;;;;7.90;35.64;98155.09;5029162;28;20295;-69
2024/01/22 00:04:40;;;;;;;4.90;3.30;;;;;;;7.89;35.73;98150.81;5028341;28;20728;-68
2024/01/22 00:07:05;;;;;;;5.57;3.17;;;;;;;7.86;35.63;98137.97;5038332;28;20609;-69
2024/01/22 00:09:31;;;;;;;4.20;3.40;;;;;;;7.77;35.31;98136.88;5035388;28;20277;-70
2024/01/22 00:11:56;;;;;;;6.57;3.80;;;;;;;7.84;35.70;98128.47;5041622;28;20182;-69
2024/01/22 00:14:22;;;;;;;5.47;3.27;;;;;;;7.81;35.94;98127.88;5032113;28;20243;-69
2024/01/22 00:16:47;;;;;;;5.40;3.70;;;;;;;7.80;35.50;98119.22;5026228;28;20204;-69
2024/01/22 00:19:12;;;;;;;5.20;3.23;;;;;;;7.76;36.03;98111.72;5035527;28;20200;-69
2024/01/22 00:21:44;;;;;;;3.90;3.13;;;;;;;7.74;36.70;98111.84;5028963;28;20188;-69
2024/01/22 00:24:09;;;;;;;4.80;3.10;;;;;;;7.72;36.41;98107.69;5035034;28;20218;-69
2024/01/22 00:26:35;;;;;;;7.60;3.00;;;;;;;7.65;36.66;98100.28;5024531;28;20445;-69
2024/01/22 00:29:00;;;;;;;6.77;3.50;;;;;;;7.57;37.10;98093.94;5033547;28;20582;-70
2024/01/22 00:31:26;;;;;;;6.40;3.40;;;;;;;7.65;36.93;98083.81;5038428;28;20220;-69
2024/01/22 00:33:51;;;;;;;4.90;3.17;;;;;;;7.53;36.92;98075.94;5033939;28;20239;-69
2024/01/22 00:36:17;;;;;;;3.70;3.17;;;;;;;7.48;37.13;98075.44;5032728;28;20709;-69
2024/01/22 00:38:42;;;;;;;3.83;3.10;;;;;;;7.52;37.11;98061.22;5040446;28;20198;-69
2024/01/22 00:41:08;;;;;;;5.00;3.47;;;;;;;7.45;36.79;98053.97;5035658;28;20196;-69
2024/01/22 00:43:34;;;;;;;3.47;2.90;;;;;;;7.48;36.94;98051.13;5046812;28;20191;-70
2024/01/22 00:46:01;;;;;;;6.37;3.40;;;;;;;7.47;36.97;98046.84;5039660;28;20199;-69
2024/01/22 00:48:26;;;;;;;5.43;3.10;;;;;;;7.47;37.38;98052.91;5044068;28;20941;-69
2024/01/22 00:50:52;;;;;;;4.00;3.10;;;;;;;7.45;37.34;98046.94;5045124;28;20496;-68
2024/01/22 00:53:17;;;;;;;4.00;3.47;;;;;;;7.44;37.33;98052.28;5037193;28;20198;-70
2024/01/22 00:55:42;;;;;;;3.83;2.80;;;;;;;7.29;38.20;98049.84;5037213;28;20211;-70
2024/01/22 00:58:08;;;;;;;5.70;3.10;;;;;;;7.33;38.53;98034.81;5039555;28;20697;-69
2024/01/22 01:00:33;;;;;;;5.43;3.60;;;;;;;7.34;38.10;98041.69;5052622;28;21004;-70
2024/01/22 01:02:59;;;;;;;4.23;3.20;;;;;;;7.38;38.17;98028.31;5036925;28;20196;-69
2024/01/22 01:05:24;;;;;;;6.77;3.73;;;;;;;7.38;38.60;98017.88;5028877;28;20215;-69
2024/01/22 01:07:50;;;;;;;4.70;3.23;;;;;;;7.29;38.85;98004.69;5035674;28;20699;-69
2024/01/22 01:10:15;;;;;;;5.83;3.53;;;;;;;7.19;38.88;98007.13;5036488;28;20302;-69
2024/01/22 01:12:41;;;;;;;5.83;3.53;;;;;;;7.24;38.96;97999.81;5038877;28;20225;-68
2024/01/22 01:15:07;;;;;;;3.93;3.30;;;;;;;7.27;38.81;98001.38;5031759;28;20239;-69
2024/01/22 01:17:32;;;;;;;6.27;3.73;;;;;;;7.29;38.92;97996.88;5035516;28;20191;-69
2024/01/22 01:19:58;;;;;;;5.40;3.00;;;;;;;7.33;38.99;97993.94;5033675;28;20431;-69
2024/01/22 01:22:23;;;;;;;5.03;3.90;;;;;;;7.29;38.89;98004.69;5037880;28;20195;-69
2024/01/22 01:24:50;;;;;;;4.07;3.17;;;;;;;7.27;39.30;98004.78;5038002;28;20703;-69
2024/01/22 01:27:17;;;;;;;5.53;3.50;;;;;;;7.25;39.40;98009.28;5034197;28;20277;-68
2024/01/22 01:29:43;;;;;;;3.50;3.20;;;;;;;7.12;39.94;97998.09;5031444;28;20565;-69
2024/01/22 01:32:08;;;;;;;6.00;3.20;;;;;;;7.02;40.25;98005.75;5035963;28;20501;-69
2024/01/22 01:34:34;;;;;;;5.17;3.43;;;;;;;6.97;40.13;98005.25;5044280;28;20215;-69
2024/01/22 01:36:59;;;;;;;8.67;3.27;;;;;;;6.85;40.29;98002.56;5043080;28;20282;-69
2024/01/22 01:39:24;;;;;;;5.27;3.30;;;;;;;6.92;40.63;98002.97;5035222;28;20223;-69
2024/01/22 01:41:50;;;;;;;5.87;3.97;;;;;;;6.97;40.19;98000.03;5042509;28;20846;-69
2024/01/22 01:44:16;;;;;;;6.17;3.67;;;;;;;6.84;40.71;98003.50;5043796;28;20249;-68
2024/01/22 01:46:41;;;;;;;5.27;3.40;;;;;;;6.71;41.18;98002.72;5039721;28;20188;-69
2024/01/22 01:49:07;;;;;;;6.37;3.67;;;;;;;6.64;41.62;97998.88;5044493;28;20717;-68
2024/01/22 01:51:32;;;;;;;8.63;3.90;;;;;;;6.71;41.20;98000.09;5038200;28;20238;-69
2024/01/22 01:53:59;;;;;;;5.13;3.07;;;;;;;6.64;41.19;97996.28;5040854;28;20544;-69
2024/01/22 01:56:25;;;;;;;3.80;3.07;;;;;;;6.43;42.18;97997.66;5049262;28;20187;-69
2024/01/22 01:58:50;;;;;;;4.70;3.83;;;;;;;6.51;41.58;98001.50;5045435;28;20428;-69
2024/01/22 02:01:16;;;;;;;4.63;3.50;;;;;;;6.44;41.85;97998.50;5037658;28;20902;-70
2024/01/22 02:03:41;;;;;;;6.20;4.20;;;;;;;6.40;42.33;97984.03;5027948;28;20200;-69
2024/01/22 02:06:07;;;;;;;7.40;4.00;;;;;;;6.27;42.51;97990.09;5044954;28;20572;-69
2024/01/22 02:08:32;;;;;;;4.80;3.80;;;;;;;6.32;42.63;97981.13;5035241;28;20199;-68
2024/01/22 02:10:58;;;;;;;6.80;3.60;;;;;;;6.29;42.88;97983.00;5043437;28;20213;-68
2024/01/22 02:13:25;;;;;;;6.07;3.47;;;;;;;6.33;42.68;97988.84;5031987;28;20329;-68
2024/01/22 02:15:51;;;;;;;5.37;3.97;;;;;;;6.38;42.37;97983.31;5042136;28;20218;-69
2024/01/22 02:18:16;;;;;;;5.13;3.50;;;;;;;6.32;42.85;97973.31;5034005;28;20456;-68
2024/01/22 02:20:41;;;;;;;4.33;3.60;;;;;;;6.36;42.86;97972.16;5031989;28;20803;-70
2024/01/22 02:23:07;;;;;;;4.53;3.60;;;;;;;6.31;43.22;97964.66;5037065;28;20222;-70
2024/01/22 02:25:33;;;;;;;9.10;4.07;;;;;;;6.19;43.35;97966.34;5032962;28;20211;-69
2024/01/22 02:27:58;;;;;;;4.30;3.50;;;;;;;6.20;43.06;97983.63;5031698;28;20176;-69
2024/01/22 02:30:24;;;;;;;5.63;4.00;;;;;;;6.20;43.26;97983.63;5034233;28;20607;-70
2024/01/22 02:32:49;;;;;;;5.10;3.77;;;;;;;6.15;43.07;97981.34;5034252;28;20195;-71
2024/01/22 02:35:15;;;;;;;3.60;3.30;;;;;;;6.05;43.71;97997.72;5032105;28;20301;-69
2024/01/22 02:37:41;;;;;;;6.27;3.97;;;;;;;6.07;43.67;97993.22;5036279;28;20187;-70
2024/01/22 02:40:06;;;;;;;5.20;4.00;;;;;;;5.90;43.65;97981.31;5036093;28;20188;-70
2024/01/22 02:42:32;;;;;;;7.33;4.10;;;;;;;5.84;43.88;97978.22;5002781;28;20207;-70
2024/01/22 02:44:58;;;;;;;16.10;4.60;;;;;;;5.88;43.71;97971.03;5040729;28;20211;-69
2024/01/22 02:47:24;;;;;;;10.23;4.30;;;;;;;6.02;43.29;97961.47;5035545;28;20944;-69
2024/01/22 02:49:49;;;;;;;8.17;3.90;;;;;;;6.05;43.27;97954.28;5037565;28;20476;-69
2024/01/22 02:52:15;;;;;;;8.70;4.53;;;;;;;6.15;43.24;97949.28;5041539;28;20493;-69
2024/01/22 02:54:40;;;;;;;5.40;3.30;;;;;;;6.12;43.55;97944.28;5039893;28;20306;-70
2024/01/22 02:57:06;;;;;;;4.80;3.77;;;;;;;6.14;43.28;97947.63;5044973;28;20250;-70
2024/01/22 02:59:32;;;;;;;8.10;4.07;;;;;;;6.22;42.91;97950.50;5040731;28;20242;-68
2024/01/22 03:01:57;;;;;;;8.90;5.23;;;;;;;6.23;43.07;97946.16;5041326;28;20188;-68
2024/01/22 03:04:23;;;;;;;6.13;4.23;;;;;;;6.13;42.83;97940.75;5028311;28;20523;-69
2024/01/22 03:06:48;;;;;;;5.53;3.77;;;;;;;5.96;43.53;97945.31;5043925;28;20429;-68
2024/01/22 03:09:15;;;;;;;6.50;3.43;;;;;;;5.99;44.17;97939.06;5041526;28;20283;-69
2024/01/22 03:11:40;;;;;;;6.80;4.20;;;;;;;6.01;44.07;97941.59;5044591;28;20203;-69
2024/01/22 03:14:05;;;;;;;4.83;3.60;;;;;;;6.11;43.78;97932.22;5034324;28;20493;-70
2024/01/22 03:16:31;;;;;;;5.93;3.40;;;;;;;6.11;43.86;97927.00;5031674;28;20195;-70
2024/01/22 03:18:56;;;;;;;7.70;3.47;;;;;;;6.08;43.96;97916.81;5043980;28;20300;-69
2024/01/22 03:21:22;;;;;;;6.73;3.67;;;;;;;6.11;44.23;97917.41;5033832;28;20214;-68
2024/01/22 03:23:47;;;;;;;4.70;3.63;;;;;;;6.01;43.98;97921.59;5034015;28;20329;-69
2024/01/22 03:26:22;;;;;;;5.40;3.70;;;;;;;5.91;44.61;97921.38;5038074;28;20197;-70
2024/01/22 03:28:50;;;;;;;5.83;3.80;;;;;;;5.92;44.35;97925.63;5036339;28;20195;-69
2024/01/22 03:31:22;;;;;;;4.60;3.73;;;;;;;5.96;44.01;97911.47;5043577;28;20568;-70
2024/01/22 03:33:47;;;;;;;7.13;3.83;;;;;;;5.82;45.41;97911.59;5038306;28;20470;-69
2024/01/22 03:36:13;;;;;;;7.03;3.43;;;;;;;5.82;45.35;97906.38;5037182;28;20436;-68
2024/01/22 03:38:38;;;;;;;5.67;3.90;;;;;;;5.89;45.32;97896.41;5030450;28;20282;-69
2024/01/22 03:41:04;;;;;;;6.30;3.80;;;;;;;5.88;45.13;97892.13;5038448;28;20198;-69
2024/01/22 03:43:29;;;;;;;5.23;3.67;;;;;;;5.86;45.68;97899.22;5040657;28;20199;-69
2024/01/22 03:45:55;;;;;;;4.50;3.10;;;;;;;5.90;45.23;97892.84;5031564;28;20202;-70
2024/01/22 03:48:20;;;;;;;5.37;4.03;;;;;;;5.93;45.76;97892.66;5036204;28;20226;-69
2024/01/22 03:50:46;;;;;;;7.23;3.90;;;;;;;6.07;45.43;97905.56;5033500;28;20290;-68
2024/01/22 03:53:11;;;;;;;6.23;3.73;;;;;;;6.15;45.11;97892.03;5029276;28;20195;-69
2024/01/22 03:55:37;;;;;;;5.90;3.70;;;;;;;6.03;45.54;97898.09;5026225;28;20566;-69
2024/01/22 03:58:02;;;;;;;7.10;3.53;;;;;;;6.10;45.39;97894.09;5043555;28;20300;-67
2024/01/22 04:00:27;;;;;;;6.33;3.70;;;;;;;6.18;45.52;97894.41;5041405;28;20195;-70
2024/01/22 04:02:53;;;;;;;4.67;3.67;;;;;;;6.29;45.30;97880.63;5043848;28;20195;-70
2024/01/22 04:05:18;;;;;;;5.97;3.70;;;;;;;6.30;45.81;97884.91;5048789;28;20246;-70
2024/01/22 04:07:44;;;;;;;4.00;3.40;;;;;;;6.44;44.96;97879.53;5040883;28;20215;-69
2024/01/22 04:10:09;;;;;;;6.17;3.37;;;;;;;6.49;45.11;97874.00;5045404;28;20241;-71
2024/01/22 04:12:35;;;;;;;3.87;3.20;;;;;;;6.42;45.35;97878.81;5044446;28;20241;-70
2024/01/22 04:15:01;;;;;;;5.30;3.63;;;;;;;6.29;46.03;97873.66;5029484;28;20215;-69
2024/01/22 04:17:26;;;;;;;6.90;3.50;;;;;;;6.39;45.39;97880.81;5019941;28;20187;-69
2024/01/22 04:19:51;;;;;;;5.13;3.50;;;;;;;6.41;45.77;97876.34;5032876;28;20266;-69
2024/01/22 04:22:17;;;;;;;11.00;3.77;;;;;;;6.45;45.42;97869.94;5045044;28;20252;-69
2024/01/22 04:24:42;;;;;;;4.47;3.97;;;;;;;6.40;45.50;97865.06;5039584;28;20672;-69
2024/01/22 04:27:08;;;;;;;4.53;3.50;;;;;;;6.38;45.84;97858.31;5044597;28;20553;-68
2024/01/22 04:29:34;;;;;;;6.07;4.03;;;;;;;6.42;46.50;97857.97;5045111;28;20184;-68
2024/01/22 04:32:00;;;;;;;4.90;3.73;;;;;;;6.46;45.87;97853.38;5043163;28;20544;-69
2024/01/22 04:34:25;;;;;;;4.93;3.83;;;;;;;6.50;45.92;97840.97;5038644;28;20530;-69
2024/01/22 04:36:50;;;;;;;5.10;4.10;;;;;;;6.56;45.90;97843.13;5031619;28;20231;-68
2024/01/22 04:39:16;;;;;;;4.80;4.10;;;;;;;6.60;46.20;97839.38;5050893;28;20221;-69
2024/01/22 04:41:41;;;;;;;5.97;4.23;;;;;;;6.60;46.00;97850.63;5041727;28;20184;-68
2024/01/22 04:44:07;;;;;;;7.33;4.90;;;;;;;6.61;46.10;97847.06;5041060;28;20221;-68
2024/01/22 04:46:32;;;;;;;6.07;4.07;;;;;;;6.65;46.09;97854.66;5041514;28;20209;-68
2024/01/22 04:48:57;;;;;;;7.30;3.80;;;;;;;6.58;46.49;97836.06;5034157;28;20290;-67
2024/01/22 04:51:24;;;;;;;8.10;4.10;;;;;;;6.53;46.51;97835.53;5035250;28;20295;-69
2024/01/22 04:53:50;;;;;;;4.60;3.40;;;;;;;6.63;46.16;97833.94;5036565;28;20191;-68
2024/01/22 04:56:15;;;;;;;4.00;3.03;;;;;;;6.66;46.59;97830.28;5038901;28;20504;-68
2024/01/22 04:58:40;;;;;;;6.40;3.43;;;;;;;6.75;46.42;97837.41;5041803;28;20282;-69
2024/01/22 05:01:06;;;;;;;6.53;4.70;;;;;;;6.75;46.31;97821.78;5030225;28;20301;-68
2024/01/22 05:03:31;;;;;;;9.00;3.83;;;;;;;6.58;46.95;97826.44;5035727;28;20196;-70
2024/01/22 05:05:57;;;;;;;10.70;4.60;;;;;;;6.62;46.97;97821.84;5037512;28;20676;-68
2024/01/22 05:08:22;;;;;;;5.40;4.03;;;;;;;6.64;47.19;97821.75;5035068;28;20637;-68
2024/01/22 05:10:48;;;;;;;4.70;4.00;;;;;;;6.68;46.99;97812.78;5034585;28;20200;-68
2024/01/22 05:13:13;;;;;;;7.10;3.90;;;;;;;6.73;47.12;97802.81;5033916;28;20191;-69
2024/01/22 05:15:39;;;;;;;4.97;4.07;;;;;;;6.71;47.50;97805.56;5043811;28;20597;-70
2024/01/22 05:18:04;;;;;;;5.50;3.70;;;;;;;6.67;47.83;97790.28;5018616;28;20186;-70
2024/01/22 05:20:30;;;;;;;4.60;3.80;;;;;;;6.71;47.80;97799.50;5041558;28;20615;-69
2024/01/22 05:22:55;;;;;;;6.73;4.60;;;;;;;6.74;47.88;97796.69;5030769;28;20523;-70
2024/01/22 05:25:21;;;;;;;5.83;4.13;;;;;;;6.82;47.57;97796.94;5037960;28;20239;-70
2024/01/22 05:27:47;;;;;;;7.43;4.07;;;;;;;6.95;47.86;97798.63;5036744;28;20278;-70
2024/01/22 05:30:13;;;;;;;3.60;3.30;;;;;;;7.10;47.41;97802.69;5029354;28;20238;-70
2024/01/22 05:32:38;;;;;;;3.33;2.90;;;;;;;7.22;47.96;97798.34;5037775;28;20447;-69
2024/01/22 05:35:04;;;;;;;4.23;3.07;;;;;;;7.33;47.64;97794.88;5037943;28;20454;-69
2024/01/22 05:37:31;;;;;;;5.93;3.33;;;;;;;7.36;47.28;97800.72;5038629;28;20195;-70
2024/01/22 05:39:56;;;;;;;5.27;3.17;;;;;;;7.46;47.44;97800.81;5035316;28;20489;-70
2024/01/22 05:42:21;;;;;;;3.37;2.93;;;;;;;7.59;47.63;97800.72;5033041;28;20529;-71
2024/01/22 05:44:47;;;;;;;3.50;2.87;;;;;;;7.64;47.46;97793.34;5038009;28;20707;-70
2024/01/22 05:47:12;;;;;;;4.27;3.13;;;;;;;7.73;46.78;97797.03;5034973;28;20238;-70
2024/01/22 05:49:38;;;;;;;10.43;3.13;;;;;;;7.76;46.45;97788.97;5035896;28;20855;-70
2024/01/22 05:52:03;;;;;;;6.47;3.60;;;;;;;7.87;46.68;97767.25;5037946;28;20188;-70
2024/01/22 05:54:29;;;;;;;4.77;2.90;;;;;;;7.81;46.47;97762.50;5032910;28;20305;-70
2024/01/22 05:56:55;;;;;;;3.50;2.60;;;;;;;7.92;46.08;97764.28;5037101;28;20604;-69
2024/01/22 05:59:20;;;;;;;4.07;3.30;;;;;;;7.94;46.25;97757.97;5036765;28;20426;-69
2024/01/22 06:01:46;;;;;;;4.07;3.20;;;;;;;7.97;45.88;97764.72;5039199;28;20201;-71
2024/01/22 06:04:11;;;;;;;4.43;3.90;;;;;;;8.00;45.65;97759.28;5042240;28;20221;-69
2024/01/22 06:06:37;;;;;;;5.00;4.20;;;;;;;8.13;45.59;97762.56;5031430;28;20187;-70
2024/01/22 06:09:03;;;;;;;4.27;3.80;;;;;;;8.21;45.47;97753.25;5033862;28;20190;-69
2024/01/22 06:11:30;;;;;;;7.13;3.00;;;;;;;8.24;45.61;97753.03;5040288;28;20278;-70
2024/01/22 06:13:56;;;;;;;10.60;3.63;;;;;;;8.31;44.84;97759.44;5034587;28;20219;-69
2024/01/22 06:16:21;;;;;;;4.73;3.73;;;;;;;8.28;44.84;97752.66;5031076;28;20466;-70
2024/01/22 06:18:48;;;;;;;4.00;3.27;;;;;;;8.40;44.45;97742.16;5044406;28;20217;-70
2024/01/22 06:21:13;;;;;;;4.80;3.50;;;;;;;8.43;44.40;97740.16;5037518;28;20229;-69
2024/01/22 06:23:39;;;;;;;4.40;3.23;;;;;;;8.43;43.89;97732.31;5039632;28;20773;-70
2024/01/22 06:26:05;;;;;;;4.00;3.27;;;;;;;8.41;44.19;97729.00;5032053;28;20279;-70
2024/01/22 06:28:31;;;;;;;9.03;3.67;;;;;;;8.55;43.68;97732.28;5035345;28;20565;-71
2024/01/22 06:30:57;;;;;;;5.83;3.43;;;;;;;8.57;43.78;97733.81;5040479;28;20484;-69
2024/01/22 06:33:22;;;;;;;7.83;3.63;;;;;;;8.57;43.85;97738.19;5044804;28;20198;-69
2024/01/22 06:35:48;;;;;;;7.03;3.70;;;;;;;8.56;43.42;97737.38;5039593;28;20462;-69
2024/01/22 06:38:17;;;;;;;6.30;3.77;;;;;;;8.59;43.58;97734.50;5028832;28;20202;-70
2024/01/22 06:40:44;;;;;;;5.10;3.30;;;;;;;8.66;43.33;97734.84;5031575;28;20194;-69
2024/01/22 06:43:10;;;;;;;4.73;3.83;;;;;;;8.62;43.50;97730.81;5036410;28;20442;-69
2024/01/22 06:45:35;;;;;;;4.07;3.00;;;;;;;8.66;43.74;97740.06;5039495;28;20462;-68
2024/01/22 06:48:01;;;;;;;8.40;4.07;;;;;;;8.64;43.40;97733.28;5031114;28;20200;-69
2024/01/22 06:50:27;;;;;;;6.67;4.00;;;;;;;8.75;43.37;97731.44;5045840;28;20267;-68
2024/01/22 06:52:52;;;;;;;7.40;3.90;;;;;;;8.80;43.41;97718.00;5036957;28;20433;-68
2024/01/22 06:55:18;;;;;;;5.47;3.10;;;;;;;8.66;43.70;97713.94;5030921;28;20209;-70
2024/01/22 06:57:44;;;;;;;5.67;3.50;;;;;;;8.73;43.68;97722.09;5031643;28;20194;-68
2024/01/22 07:00:11;;;;;;;8.23;3.87;;;;;;;8.68;43.53;97719.00;5028896;28;20995;-69
2024/01/22 07:02:41;;;;;;;5.90;3.20;;;;;;;8.78;42.90;97716.47;5032229;28;20275;-69
2024/01/22 07:05:08;;;;;;;6.73;3.80;;;;;;;8.78;42.93;97719.09;5034068;28;20452;-68
2024/01/22 07:07:34;;;;;;;4.10;2.80;;;;;;;8.73;42.56;97714.25;5032122;28;20461;-68
2024/01/22 07:09:59;;;;;;;4.00;3.33;;;;;;;8.81;42.80;97711.81;5039381;28;21069;-67
2024/01/22 07:12:25;;;;;;;6.23;3.30;;;;;;;8.92;42.63;97708.31;5032347;28;20215;-68
2024/01/22 07:14:50;;;;;;;8.13;3.30;;;;;;;8.95;42.22;97708.03;5032843;28;20219;-69
2024/01/22 07:17:16;;;;;;;3.30;2.83;;;;;;;8.89;41.76;97703.31;5035326;28;20196;-69
2024/01/22 07:19:42;;;;;;;4.07;2.77;;;;;;;8.96;41.76;97712.28;5045665;28;20184;-69
2024/01/22 07:22:08;;;;;;;4.73;3.17;;;;;;;9.03;41.63;97721.28;5031460;28;20957;-70
2024/01/22 07:24:34;;;;;;;6.03;3.37;;;;;;;9.06;42.12;97730.66;5034398;28;20537;-69
2024/01/22 07:26:59;;;;;;;4.90;3.20;;;;;;;9.11;41.95;97735.50;5030612;28;20427;-72
2024/01/22 07:29:25;;;;;;;7.47;3.50;;;;;;;9.13;42.06;97734.44;5036589;28;20222;-69
2024/01/22 07:31:50;;;;;;;8.73;3.60;;;;;;;9.17;41.69;97722.72;5040386;28;20211;-69
2024/01/22 07:34:16;;;;;;;4.90;2.53;;;;;;;9.14;41.79;97709.91;5033905;28;20297;-69
2024/01/22 07:36:41;;;;;;;3.93;2.57;;;;;;;9.20;41.50;97703.31;5034038;28;20199;-69
2024/01/22 07:39:07;;;;;;;9.90;2.37;;;;;;;9.24;41.41;97696.88;5041998;28;20195;-70
2024/01/22 07:41:36;;;;;;;4.47;2.57;;;;;;;9.21;41.99;97692.75;5035357;28;20188;-70
2024/01/22 07:44:03;;;;;;;3.90;2.30;;;;;;;9.27;41.59;97690.53;5032301;28;21044;-70
2024/01/22 07:46:29;;;;;;;3.80;2.27;;;;;;;9.34;41.44;97689.88;5032567;28;20452;-68
2024/01/22 07:48:54;;;;;;;2.77;2.30;;;;;;;9.34;41.56;97683.84;5031570;28;20544;-70
2024/01/22 07:51:20;;;;;;;2.77;2.40;;;;;;;9.41;41.96;97668.44;5034097;28;20298;-69
2024/01/22 07:53:46;;;;;;;2.50;1.97;;;;;;;9.43;41.58;97658.69;5025798;28;20191;-68
2024/01/22 07:56:11;;;;;;;3.60;2.10;;;;;;;9.51;41.74;97648.34;5040470;28;20492;-68
2024/01/22 07:58:40;;;;;;;9.70;3.00;;;;;;;9.51;41.57;97649.16;5033344;28;20275;-71
2024/01/22 08:01:06;;;;;;;7.17;1.90;;;;;;;9.58;42.22;97643.41;5033710;28;20198;-69
2024/01/22 08:03:32;;;;;;;2.00;1.90;;;;;;;9.66;41.86;97635.69;5039989;28;20426;-70
2024/01/22 08:06:00;;;;;;;3.37;2.20;;;;;;;9.74;42.19;97635.03;5029808;28;20487;-67
2024/01/22 08:08:27;;;;;;;4.33;1.83;;;;;;;9.76;41.85;97623.47;5042620;28;20187;-69
2024/01/22 08:10:53;;;;;;;3.40;1.93;;;;;;;9.79;42.39;97617.13;5028376;28;21260;-69
2024/01/22 08:13:18;;;;;;;7.90;2.10;;;;;;;9.83;42.15;97619.34;5030346;28;20464;-69
2024/01/22 08:15:44;;;;;;;5.23;2.00;;;;;;;9.88;42.36;97615.47;5039943;28;20309;-68
2024/01/22 08:18:10;;;;;;;3.13;1.67;;;;;;;9.93;42.50;97624.56;5039192;28;20191;-69
2024/01/22 08:20:36;;;;;;;3.53;1.97;;;;;;;9.99;43.13;97620.56;5044589;28;20190;-71
2024/01/22 08:23:01;;;;;;;6.50;1.90;;;;;;;10.01;43.46;97625.66;5035530;28;20425;-69
2024/01/22 08:25:28;;;;;;;2.13;1.70;;;;;;;10.06;43.53;97619.03;5030795;28;20302;-68
2024/01/22 08:27:54;;;;;;;3.77;1.30;;;;;;;10.07;44.19;97618.09;5031950;28;20210;-69
2024/01/22 08:30:20;;;;;;;1.40;1.30;;;;;;;10.15;44.79;97609.53;5027050;28;20521;-69
2024/01/22 08:32:45;;;;;;;1.70;1.43;;;;;;;10.26;45.23;97614.63;5046507;28;20461;-69
2024/01/22 08:35:11;;;;;;;11.30;1.63;;;;;;;10.29;46.04;97609.09;5030880;28;20474;-68
2024/01/22 08:37:39;;;;;;;1.50;1.20;;;;;;;10.41;46.68;97609.78;5041097;28;20191;-68
2024/01/22 08:40:05;;;;;;;3.33;1.60;;;;;;;10.54;47.41;97621.75;5036298;28;20865;-70
2024/01/22 08:42:32;;;;;;;6.30;1.33;;;;;;;10.62;48.63;97629.75;5030047;28;20516;-69
2024/01/22 08:44:58;;;;;;;4.37;1.30;;;;;;;10.84;48.46;97622.50;5038814;28;20462;-69
2024/01/22 08:47:23;;;;;;;1.60;1.20;;;;;;;11.00;48.66;97619.25;5030883;28;20934;-69
2024/01/22 08:49:49;;;;;;;2.83;1.37;;;;;;;11.15;48.71;97609.94;5036616;28;20269;-71
2024/01/22 08:52:14;;;;;;;1.07;0.90;;;;;;;11.21;49.01;97604.09;5029171;28;20275;-69
2024/01/22 08:54:40;;;;;;;2.87;1.10;;;;;;;11.34;48.97;97602.94;5044364;28;20290;-69
2024/01/22 08:57:05;;;;;;;1.60;0.90;;;;;;;11.50;48.88;97603.09;5037831;28;20730;-69
2024/01/22 08:59:30;;;;;;;1.33;0.90;;;;;;;11.52;49.27;97595.09;5045438;28;20187;-69
2024/01/22 09:01:56;;;;;;;1.00;0.80;;;;;;;11.79;49.14;97588.94;5043677;28;20211;-69
2024/01/22 09:04:21;;;;;;;2.10;1.07;;;;;;;11.79;49.29;97593.34;5039039;28;20298;-69
2024/01/22 09:06:47;;;;;;;1.57;0.87;;;;;;;11.84;50.01;97597.19;5034660;28;20270;-69
2024/01/22 09:09:13;;;;;;;2.80;0.93;;;;;;;12.02;50.04;97599.00;5040861;28;20190;-71
2024/01/22 09:11:38;;;;;;;2.67;1.03;;;;;;;11.99;51.20;97601.94;5040162;28;20241;-70
2024/01/22 09:14:04;;;;;;;2.20;1.00;;;;;;;12.35;50.54;97599.25;5039098;28;20529;-69
2024/01/22 09:16:29;;;;;;;1.40;1.03;;;;;;;12.38;50.99;97612.09;5033195;28;20203;-68
2024/01/22 09:18:57;;;;;;;2.53;1.20;;;;;;;12.46;51.18;97608.69;5036585;28;20184;-69
2024/01/22 09:21:22;;;;;;;6.10;1.30;;;;;;;12.65;50.76;97635.78;5030308;28;20176;-69
2024/01/22 09:23:48;;;;;;;1.97;1.20;;;;;;;12.82;50.20;97607.75;5049188;28;20444;-70
2024/01/22 09:26:13;;;;;;;2.27;1.40;;;;;;;13.08;49.60;97604.25;5029844;28;20891;-69
2024/01/22 09:28:39;;;;;;;2.90;1.20;;;;;;;12.99;50.06;97606.84;5032422;28;20236;-70
2024/01/22 09:31:05;;;;;;;3.93;1.10;;;;;;;12.99;50.33;97596.31;5043334;28;20301;-70
2024/01/22 09:33:30;;;;;;;1.50;1.10;;;;;;;13.27;49.47;97580.28;5046334;28;20248;-69
2024/01/22 09:35:56;;;;;;;1.00;0.80;;;;;;;13.40;49.23;97602.72;5039169;28;20285;-69
2024/01/22 09:38:22;;;;;;;1.00;0.70;;;;;;;13.37;49.35;97599.41;5038187;28;20215;-69
2024/01/22 09:40:50;;;;;;;3.00;0.80;;;;;;;13.44;49.76;97601.44;5041830;28;20270;-69
2024/01/22 09:43:16;;;;;;;1.13;0.87;;;;;;;13.53;49.70;97603.09;5050919;28;20920;-68
2024/01/22 09:45:41;;;;;;;1.20;0.80;;;;;;;13.58;49.47;97599.97;5032502;28;20450;-69
2024/01/22 09:48:08;;;;;;;1.07;0.70;;;;;;;13.67;49.64;97589.31;5025081;28;20613;-69
2024/01/22 09:50:33;;;;;;;3.63;0.83;;;;;;;13.67;49.71;97588.50;5032808;28;20728;-70
2024/01/22 09:53:11;;;;;;;0.80;0.57;;;;;;;13.34;50.97;97583.94;5037126;28;20437;-70
2024/01/22 09:55:41;;;;;;;1.17;0.80;;;;;;;13.73;50.28;97597.56;5028052;28;20249;-68
2024/01/22 09:58:09;;;;;;;3.23;0.73;;;;;;;13.79;50.08;97588.97;5036585;28;20427;-69
2024/01/22 10:00:35;;;;;;;1.33;0.70;;;;;;;13.78;50.37;97595.22;5031718;28;20926;-69
2024/01/22 10:03:03;;;;;;;1.20;0.60;;;;;;;13.86;50.34;97587.31;4995641;28;20934;-69
2024/01/22 10:05:28;;;;;;;2.13;0.77;;;;;;;13.95;50.26;97581.09;5038279;28;20461;-70
2024/01/22 10:07:54;;;;;;;2.07;0.70;;;;;;;13.82;50.91;97580.75;5035680;28;20426;-70
2024/01/22 10:10:22;;;;;;;1.70;1.43;;;;;;;13.90;50.97;97583.38;5036529;28;20572;-69
2024/01/22 10:12:57;;;;;;;1.00;0.70;;;;;;;13.68;51.91;97571.66;5031146;28;20656;-69
2024/01/22 10:15:22;;;;;;;1.10;0.80;;;;;;;13.96;51.04;97566.94;5037731;28;20815;-70
2024/01/22 10:17:48;;;;;;;1.33;0.70;;;;;;;13.98;51.16;97564.13;5034352;28;20445;-70
2024/01/22 10:20:15;;;;;;;0.90;0.60;;;;;;;14.03;51.14;97558.34;5037937;28;20186;-70
2024/01/22 10:22:40;;;;;;;1.73;0.70;;;;;;;14.06;50.96;97539.59;5039360;28;20898;-69
2024/01/22 10:25:06;;;;;;;1.10;0.90;;;;;;;14.12;50.96;97541.53;5037674;28;20532;-70
2024/01/22 10:27:32;;;;;;;1.97;0.90;;;;;;;14.16;50.85;97558.66;5027915;28;20665;-70
2024/01/22 10:30:11;;;;;;;1.30;0.77;;;;;;;14.09;51.08;97541.88;5028722;28;20191;-68
2024/01/22 10:32:36;;;;;;;1.00;0.70;;;;;;;14.13;50.97;97532.66;5052395;28;20432;-69
2024/01/22 10:35:02;;;;;;;1.40;0.90;;;;;;;14.14;50.95;97531.66;5045810;28;21095;-70
2024/01/22 10:37:27;;;;;;;1.10;0.90;;;;;;;14.20;50.83;97531.00;5044545;28;20223;-69
2024/01/22 10:40:03;;;;;;;2.10;1.00;;;;;;;14.24;50.68;97526.22;5039566;28;20664;-69
2024/01/22 10:42:29;;;;;;;1.67;0.93;;;;;;;14.16;50.93;97513.88;5042747;28;20563;-70
2024/01/22 10:44:56;;;;;;;1.67;1.00;;;;;;;14.15;51.43;97495.59;5029298;28;20458;-70
2024/01/22 10:47:21;;;;;;;1.00;0.90;;;;;;;13.98;51.74;97496.44;5039173;28;20194;-71
2024/01/22 10:49:47;;;;;;;1.10;0.80;;;;;;;13.99;52.35;97502.53;5038157;28;20922;-70
2024/01/22 10:52:15;;;;;;;1.10;0.83;;;;;;;14.10;51.91;97498.75;5031367;28;20589;-71
2024/01/22 10:54:41;;;;;;;1.60;1.00;;;;;;;14.28;51.34;97496.72;5038520;28;20298;-69
2024/01/22 10:57:11;;;;;;;1.30;0.90;;;;;;;14.32;51.14;97502.47;5029033;28;20435;-70
2024/01/22 10:59:40;;;;;;;5.47;1.30;;;;;;;14.24;50.90;97500.66;5031661;28;20264;-69
2024/01/22 11:02:35;;;;;;;1.40;1.10;;;;;;;14.24;51.19;97484.84;5033448;28;20431;-72
2024/01/22 11:05:14;;;;;;;1.20;0.90;;;;;;;14.24;51.32;97484.84;5037440;28;20460;-71
2024/01/22 11:07:40;;;;;;;1.57;0.93;;;;;;;14.26;51.18;97484.69;5011040;28;20967;-73
2024/01/22 11:10:09;;;;;;;1.17;1.00;;;;;;;14.19;51.60;97471.38;5039331;28;20430;-73
2024/01/22 11:12:49;;;;;;;1.40;1.00;;;;;;;14.47;51.06;97465.69;5040044;28;20191;-72
2024/01/22 11:15:14;;;;;;;1.63;1.00;;;;;;;14.58;51.15;97465.31;5034877;28;20480;-71
2024/01/22 11:17:40;;;;;;;1.10;0.90;;;;;;;14.58;51.44;97472.38;5037514;28;20468;-72
2024/01/22 11:20:15;;;;;;;1.10;0.90;;;;;;;14.54;51.46;97453.44;5035141;28;20904;-70
2024/01/22 11:22:41;;;;;;;1.20;0.87;;;;;;;14.72;50.80;97452.41;5030833;28;20191;-70
2024/01/22 11:25:12;;;;;;;3.03;0.90;;;;;;;14.69;50.94;97448.28;5032535;28;20469;-72
2024/01/22 11:27:42;;;;;;;1.40;0.90;;;;;;;14.70;51.57;97463.13;5040875;28;20195;-70
2024/01/22 11:30:23;;;;;;;3.50;0.80;;;;;;;14.63;52.37;97456.03;5064538;28;20440;-71
2024/01/22 11:32:49;;;;;;;1.37;1.00;;;;;;;14.73;52.96;97456.69;5037591;28;20424;-73
2024/01/22 11:35:34;;;;;;;2.17;1.30;;;;;;;14.67;52.84;97446.78;5049041;28;20674;-73